Time;durP1;ratioP1;P1;durP2;ratioP2;P2;SDS_P1;SDS_P2;PMS_P1;PMS_P2;Temp;Humidity;BMP_temperature;BMP_pressure;BME280_temperature;BME280_humidity;BME280_pressure;Samples;Min_cycle;Max_cycle;Signal;HPM_P1;HPM_P2
2022/09/01 00:02:39;;;;;;;1.60;0.80;;;20.40;79.50;;;;;;10524230;28;20470;-62
2022/09/01 00:07:40;;;;;;;1.00;0.70;;;20.40;79.50;;;;;;10527594;28;20185;-62
2022/09/01 00:12:42;;;;;;;1.98;0.90;;;20.40;79.50;;;;;;10529359;28;20039;-61
2022/09/01 00:17:42;;;;;;;1.08;0.85;;;20.30;79.60;;;;;;10526180;28;20039;-61
2022/09/01 00:22:43;;;;;;;1.42;1.00;;;20.30;79.60;;;;;;10530300;28;20132;-61
2022/09/01 00:27:44;;;;;;;2.00;0.90;;;20.30;79.60;;;;;;10529402;28;20535;-62
2022/09/01 00:32:45;;;;;;;2.38;1.10;;;20.20;79.50;;;;;;10529813;28;20028;-61
2022/09/01 00:37:46;;;;;;;2.88;1.00;;;20.20;79.50;;;;;;10521956;28;20309;-61
2022/09/01 00:42:48;;;;;;;1.00;0.70;;;20.20;79.60;;;;;;10519833;28;20054;-62
2022/09/01 00:47:48;;;;;;;0.93;0.80;;;20.10;79.50;;;;;;10525031;28;20020;-62
2022/09/01 00:52:52;;;;;;;1.25;0.93;;;20.10;79.50;;;;;;10533988;28;20463;-61
2022/09/01 00:57:53;;;;;;;1.77;0.80;;;20.10;79.50;;;;;;10529323;28;20843;-61
2022/09/01 01:02:55;;;;;;;1.65;1.10;;;20.10;79.50;;;;;;10532333;28;20046;-61
2022/09/01 01:07:56;;;;;;;1.95;0.90;;;20.00;79.40;;;;;;10533898;28;20476;-61
2022/09/01 01:12:59;;;;;;;1.33;0.90;;;20.00;79.40;;;;;;10530250;28;20028;-62
2022/09/01 01:18:00;;;;;;;2.65;1.35;;;20.00;79.40;;;;;;10530887;28;20067;-62
2022/09/01 01:23:15;;;;;;;1.15;0.82;;;20.00;79.40;;;;;;10527994;28;20048;-61
2022/09/01 01:28:20;;;;;;;2.13;0.90;;;19.90;79.50;;;;;;10522832;28;20021;-61
2022/09/01 01:33:25;;;;;;;1.80;0.75;;;19.90;79.40;;;;;;10525633;28;20025;-61
2022/09/01 01:38:29;;;;;;;2.28;0.80;;;19.90;79.40;;;;;;10527259;28;20066;-61
2022/09/01 01:43:30;;;;;;;1.73;0.80;;;19.80;79.30;;;;;;10523396;28;20107;-61
2022/09/01 01:48:33;;;;;;;2.25;1.00;;;19.80;79.30;;;;;;10517105;28;20094;-61
2022/09/01 01:53:34;;;;;;;0.77;0.70;;;19.80;79.30;;;;;;10525387;28;20631;-61
2022/09/01 01:58:35;;;;;;;1.80;0.80;;;19.80;79.30;;;;;;10526810;28;20047;-61
2022/09/01 02:03:37;;;;;;;0.93;0.90;;;19.70;79.20;;;;;;10530609;28;20043;-61
2022/09/01 02:08:39;;;;;;;1.77;0.77;;;19.70;79.20;;;;;;10526867;28;20028;-61
2022/09/01 02:13:40;;;;;;;0.95;0.80;;;19.70;79.20;;;;;;10530523;28;20032;-61
2022/09/01 02:18:46;;;;;;;1.50;0.77;;;19.60;79.10;;;;;;10523586;28;20055;-61
2022/09/01 02:23:59;;;;;;;3.97;0.80;;;19.60;79.10;;;;;;10527572;28;20723;-61
2022/09/01 02:29:05;;;;;;;1.38;0.70;;;19.60;79.10;;;;;;10525236;28;20032;-61
2022/09/01 02:34:09;;;;;;;0.90;0.70;;;19.60;79.10;;;;;;10524185;28;20020;-61
2022/09/01 02:39:10;;;;;;;1.55;0.75;;;19.50;79.00;;;;;;10525408;28;20063;-61
2022/09/01 02:44:11;;;;;;;1.63;0.90;;;19.50;79.00;;;;;;10525624;28;20062;-61
2022/09/01 02:49:23;;;;;;;1.35;0.90;;;19.50;79.00;;;;;;10521880;28;20052;-61
2022/09/01 02:54:24;;;;;;;1.38;0.70;;;19.50;78.90;;;;;;10522409;28;20020;-61
2022/09/01 02:59:27;;;;;;;1.90;1.15;;;19.40;78.90;;;;;;10522689;28;20036;-61
2022/09/01 03:04:32;;;;;;;0.85;0.60;;;19.40;78.90;;;;;;10526703;28;20033;-61
2022/09/01 03:09:34;;;;;;;0.60;0.60;;;19.40;78.90;;;;;;10527003;28;20028;-61
2022/09/01 03:14:34;;;;;;;1.58;0.80;;;19.30;78.80;;;;;;10520881;28;20103;-62
2022/09/01 03:19:44;;;;;;;1.20;0.77;;;19.30;78.80;;;;;;10518490;28;20060;-61
2022/09/01 03:24:44;;;;;;;2.13;0.80;;;19.30;78.80;;;;;;10519556;28;20027;-61
2022/09/01 03:29:45;;;;;;;1.25;0.85;;;19.30;78.80;;;;;;10518420;28;20039;-61
2022/09/01 03:34:46;;;;;;;2.13;0.93;;;19.20;78.70;;;;;;10523607;28;20039;-62
2022/09/01 03:39:46;;;;;;;1.58;0.80;;;19.20;78.70;;;;;;10523166;28;20090;-61
2022/09/01 03:44:48;;;;;;;1.05;0.85;;;19.20;78.70;;;;;;10518462;28;20020;-61
2022/09/01 03:49:50;;;;;;;0.60;0.60;;;19.20;78.80;;;;;;10518390;28;20032;-62
2022/09/01 03:54:52;;;;;;;1.77;0.90;;;19.20;78.70;;;;;;10522135;28;20028;-61
2022/09/01 03:59:53;;;;;;;0.85;0.80;;;19.10;78.70;;;;;;10520969;28;20031;-62
2022/09/01 04:04:54;;;;;;;1.65;0.90;;;19.10;78.60;;;;;;10523131;28;20034;-61
2022/09/01 04:09:54;;;;;;;1.33;0.70;;;19.10;78.60;;;;;;10523293;28;20077;-61
2022/09/01 04:14:55;;;;;;;1.00;0.90;;;19.00;78.60;;;;;;10519122;28;20032;-61
2022/09/01 04:19:56;;;;;;;1.73;0.82;;;19.00;78.60;;;;;;10519763;28;20072;-62
2022/09/01 04:24:58;;;;;;;0.80;0.70;;;19.00;78.60;;;;;;10518058;28;20448;-61
2022/09/01 04:30:00;;;;;;;0.85;0.68;;;19.00;78.60;;;;;;10523322;28;20016;-62
2022/09/01 04:35:01;;;;;;;1.50;1.10;;;18.90;78.50;;;;;;10522301;28;20373;-61
2022/09/01 04:40:03;;;;;;;0.80;0.70;;;18.90;78.50;;;;;;10524655;28;20040;-62
2022/09/01 04:45:05;;;;;;;0.80;0.60;;;18.90;78.50;;;;;;10515742;28;20385;-62
2022/09/01 04:50:12;;;;;;;1.30;0.85;;;18.90;78.50;;;;;;10521503;28;20586;-61
2022/09/01 04:55:17;;;;;;;0.90;0.75;;;18.80;78.50;;;;;;10521764;28;20388;-62
2022/09/01 05:00:23;;;;;;;1.30;0.70;;;18.80;78.50;;;;;;10514598;28;20047;-61
2022/09/01 05:05:26;;;;;;;1.13;0.63;;;18.80;78.50;;;;;;10519624;28;21082;-61
2022/09/01 05:10:30;;;;;;;2.25;0.90;;;18.80;78.50;;;;;;10457248;28;20649;-61
2022/09/01 05:15:31;;;;;;;0.90;0.70;;;18.60;78.30;;;;;;10422969;28;20059;-61
2022/09/01 05:20:32;;;;;;;1.55;0.77;;;18.80;78.40;;;;;;10435903;28;20495;-61
2022/09/01 05:25:39;;;;;;;2.45;0.98;;;18.70;78.30;;;;;;10433681;28;20024;-62
2022/09/01 05:30:41;;;;;;;1.93;1.00;;;18.70;78.30;;;;;;10429009;28;20023;-62
2022/09/01 05:35:54;;;;;;;3.40;0.90;;;18.70;78.40;;;;;;10437740;28;20039;-62
2022/09/01 05:41:03;;;;;;;0.80;0.73;;;18.70;78.30;;;;;;10442282;28;20396;-62
2022/09/01 05:46:07;;;;;;;2.30;0.95;;;18.70;78.30;;;;;;10440002;28;20481;-61
2022/09/01 05:51:09;;;;;;;1.52;0.85;;;18.70;78.30;;;;;;10447434;28;20058;-61
2022/09/01 05:56:12;;;;;;;0.95;0.68;;;18.70;78.30;;;;;;10440442;28;20028;-61
2022/09/01 06:01:26;;;;;;;1.92;0.90;;;18.70;78.30;;;;;;10438436;28;20445;-61
2022/09/01 06:06:34;;;;;;;2.13;0.75;;;18.70;78.20;;;;;;10434548;28;20823;-61
2022/09/01 06:11:35;;;;;;;1.17;0.90;;;18.70;78.20;;;;;;10440413;28;20035;-61
2022/09/01 06:16:37;;;;;;;1.60;0.80;;;18.60;78.20;;;;;;10439484;28;20048;-62
2022/09/01 06:21:38;;;;;;;2.00;0.85;;;18.60;78.20;;;;;;10443321;28;20152;-61
2022/09/01 06:26:41;;;;;;;1.30;0.90;;;18.60;78.20;;;;;;10451904;28;20055;-61
2022/09/01 06:31:46;;;;;;;1.45;0.90;;;18.60;78.20;;;;;;10438857;28;20016;-61
2022/09/01 06:36:49;;;;;;;1.13;0.80;;;18.60;78.20;;;;;;10449761;28;20145;-61
2022/09/01 06:41:51;;;;;;;1.00;0.77;;;18.60;78.20;;;;;;10446224;28;21033;-61
2022/09/01 06:46:52;;;;;;;1.92;0.70;;;18.60;78.10;;;;;;10452985;28;20151;-61
2022/09/01 06:51:53;;;;;;;0.82;0.68;;;18.70;78.20;;;;;;10437690;28;20024;-61
2022/09/01 06:56:54;;;;;;;1.20;0.82;;;18.70;78.20;;;;;;10441455;28;20070;-61
2022/09/01 07:01:56;;;;;;;1.08;0.80;;;18.70;78.20;;;;;;10442538;28;20428;-61
2022/09/01 07:06:57;;;;;;;1.23;0.80;;;18.70;78.80;;;;;;10452008;28;20122;-62
2022/09/01 07:11:58;;;;;;;0.70;0.70;;;18.70;78.20;;;;;;10442874;28;20581;-61
2022/09/01 07:16:59;;;;;;;1.20;0.70;;;18.80;78.30;;;;;;10445990;28;20546;-61
2022/09/01 07:22:00;;;;;;;0.65;0.60;;;18.80;78.30;;;;;;10442500;28;20049;-61
2022/09/01 07:27:00;;;;;;;0.77;0.70;;;18.90;78.30;;;;;;10446457;28;20055;-62
2022/09/01 07:32:01;;;;;;;2.38;0.82;;;18.90;78.30;;;;;;10442405;28;20049;-61
2022/09/01 07:37:02;;;;;;;1.30;1.00;;;19.00;78.20;;;;;;10447596;28;20981;-61
2022/09/01 07:42:10;;;;;;;1.17;0.80;;;19.00;78.20;;;;;;10438309;28;20066;-62
2022/09/01 07:47:13;;;;;;;1.63;0.80;;;19.10;78.30;;;;;;10437095;28;20093;-62
2022/09/01 07:52:14;;;;;;;1.33;0.75;;;19.10;78.20;;;;;;10442238;28;20044;-61
2022/09/01 07:57:15;;;;;;;1.48;1.08;;;19.20;78.20;;;;;;10437312;28;20403;-62
2022/09/01 08:02:16;;;;;;;0.65;0.55;;;19.20;78.20;;;;;;10438504;28;20606;-63
2022/09/01 08:07:17;;;;;;;1.08;0.70;;;19.20;78.20;;;;;;10442442;28;20370;-62
2022/09/01 08:12:18;;;;;;;2.65;1.77;;;19.30;78.20;;;;;;10440820;28;20134;-60
2022/09/01 08:17:20;;;;;;;4.13;1.40;;;19.20;78.60;;;;;;10427616;28;20786;-58
2022/09/01 08:22:22;;;;;;;6.00;2.00;;;19.00;79.50;;;;;;10439111;28;20044;-59
2022/09/01 08:27:23;;;;;;;3.35;1.60;;;18.90;80.10;;;;;;10429889;28;20028;-60
2022/09/01 08:32:24;;;;;;;3.63;1.80;;;18.90;80.40;;;;;;10439878;28;20032;-58
2022/09/01 08:37:25;;;;;;;5.50;1.80;;;18.90;80.50;;;;;;10438216;28;20076;-60
2022/09/01 08:42:41;;;;;;;2.67;1.73;;;19.00;80.50;;;;;;10439566;28;20039;-59
2022/09/01 08:47:42;;;;;;;3.97;1.98;;;19.10;81.50;;;;;;10439736;28;20089;-59
2022/09/01 08:53:06;;;;;;;2.08;1.50;;;19.20;80.60;;;;;;10430261;28;20028;-60
2022/09/01 08:58:11;;;;;;;2.10;1.38;;;19.30;80.90;;;;;;10439061;28;20370;-60
2022/09/01 09:03:26;;;;;;;2.78;1.40;;;19.40;80.60;;;;;;10427901;28;20920;-60
2022/09/01 09:08:56;;;;;;;1.55;1.02;;;19.50;80.10;;;;;;10434675;28;20024;-62
2022/09/01 09:14:03;;;;;;;2.17;1.27;;;19.60;80.20;;;;;;10439259;28;20060;-65
2022/09/01 09:19:15;;;;;;;1.50;1.17;;;19.70;79.50;;;;;;10444304;28;20055;-63
2022/09/01 09:24:47;;;;;;;3.25;0.93;;;19.80;79.00;;;;;;10448130;28;20626;-62
2022/09/01 09:29:53;;;;;;;3.35;1.10;;;19.80;78.40;;;;;;10454939;28;20892;-64
2022/09/01 09:34:54;;;;;;;2.65;1.20;;;19.90;78.00;;;;;;10458497;28;20100;-64
2022/09/01 09:40:09;;;;;;;0.93;0.80;;;20.00;77.70;;;;;;10450393;28;20117;-60
2022/09/01 09:45:36;;;;;;;3.65;1.27;;;20.00;77.60;;;;;;10464510;28;20020;-61
2022/09/01 09:50:39;;;;;;;2.65;1.10;;;20.10;76.70;;;;;;10444471;28;20024;-61
2022/09/01 09:55:57;;;;;;;26.33;2.97;;;20.20;77.30;;;;;;10449475;28;20023;-60
2022/09/01 10:01:04;;;;;;;2.40;1.00;;;20.30;77.10;;;;;;10453903;28;20040;-60
2022/09/01 10:06:09;;;;;;;1.65;0.90;;;20.40;76.20;;;;;;10445884;28;20092;-61
2022/09/01 10:11:49;;;;;;;2.45;1.10;;;20.50;75.60;;;;;;10461455;28;20201;-59
2022/09/01 10:17:00;;;;;;;4.68;1.10;;;20.60;75.30;;;;;;10440795;28;20060;-60
2022/09/01 10:22:01;;;;;;;2.65;1.00;;;20.60;75.60;;;;;;10445952;28;20159;-61
2022/09/01 10:27:31;;;;;;;1.95;0.95;;;20.90;75.90;;;;;;10451643;28;20908;-64
2022/09/01 10:32:39;;;;;;;1.35;0.95;;;20.90;76.60;;;;;;10440249;28;20048;-60
2022/09/01 10:37:41;;;;;;;4.22;1.15;;;21.00;76.20;;;;;;10438886;28;20048;-62
2022/09/01 10:42:44;;;;;;;2.15;1.02;;;21.00;75.70;;;;;;10426502;28;21058;-63
2022/09/01 10:47:46;;;;;;;2.58;1.00;;;20.90;75.50;;;;;;10440695;28;21162;-59
2022/09/01 10:52:47;;;;;;;3.65;1.08;;;20.90;74.90;;;;;;10441599;28;20601;-60
2022/09/01 10:57:52;;;;;;;2.70;0.93;;;20.60;75.40;;;;;;10441095;28;20044;-62
2022/09/01 11:03:11;;;;;;;1.00;0.80;;;20.80;74.70;;;;;;10442972;28;20862;-60
2022/09/01 11:08:55;;;;;;;3.10;1.90;;;21.00;74.10;;;;;;10432532;28;20020;-60
2022/09/01 11:14:00;;;;;;;2.10;0.90;;;21.30;72.70;;;;;;10435380;28;20043;-62
2022/09/01 11:19:20;;;;;;;2.55;0.77;;;21.50;73.20;;;;;;10436391;28;20582;-59
2022/09/01 11:24:43;;;;;;;2.40;0.82;;;21.40;72.50;;;;;;10429488;28;20028;-62
2022/09/01 11:30:06;;;;;;;0.85;0.70;;;21.50;72.40;;;;;;10441009;28;21018;-60
2022/09/01 11:35:17;;;;;;;2.45;1.10;;;21.70;72.80;;;;;;10439163;28;20556;-61
2022/09/01 11:40:36;;;;;;;2.85;0.90;;;21.90;73.00;;;;;;10437223;28;20032;-60
2022/09/01 11:46:08;;;;;;;4.57;1.25;;;21.90;72.90;;;;;;10435598;28;20036;-63
2022/09/01 11:51:09;;;;;;;4.72;1.10;;;21.80;73.70;;;;;;10444525;28;20990;-59
2022/09/01 11:56:26;;;;;;;4.65;1.35;;;22.00;73.10;;;;;;10436979;28;20039;-65
2022/09/01 12:01:35;;;;;;;2.58;1.20;;;21.90;72.50;;;;;;10449075;28;20028;-65
2022/09/01 12:06:36;;;;;;;2.85;0.90;;;21.80;72.90;;;;;;10448120;28;20028;-65
2022/09/01 12:11:40;;;;;;;2.15;0.70;;;21.40;72.80;;;;;;10447202;28;20036;-60
2022/09/01 12:16:41;;;;;;;3.58;0.70;;;21.40;73.40;;;;;;10445552;28;20376;-65
2022/09/01 12:21:55;;;;;;;4.05;0.90;;;21.60;72.50;;;;;;10439307;28;20578;-60
2022/09/01 12:26:59;;;;;;;2.28;0.70;;;21.70;72.40;;;;;;10435158;28;20028;-61
2022/09/01 12:32:04;;;;;;;1.58;0.95;;;21.90;71.60;;;;;;10434912;28;20033;-65
2022/09/01 12:37:14;;;;;;;4.80;1.02;;;21.90;70.60;;;;;;10439647;28;20036;-62
2022/09/01 12:42:18;;;;;;;1.08;0.80;;;22.00;71.10;;;;;;10428896;28;20028;-64
2022/09/01 12:47:46;;;;;;;1.65;0.73;;;21.80;69.80;;;;;;10426832;28;20043;-60
2022/09/01 12:52:49;;;;;;;4.53;0.90;;;21.90;69.40;;;;;;10439551;28;20043;-65
2022/09/01 12:57:59;;;;;;;1.35;0.80;;;22.40;69.40;;;;;;10441355;28;20051;-63
2022/09/01 13:03:13;;;;;;;4.65;0.95;;;22.70;68.10;;;;;;10435448;28;20033;-66
2022/09/01 13:08:18;;;;;;;1.77;0.90;;;22.70;68.10;;;;;;10430044;28;20042;-63
2022/09/01 13:13:22;;;;;;;3.08;0.90;;;22.20;68.60;;;;;;10437753;28;20127;-66
2022/09/01 13:18:24;;;;;;;4.78;1.00;;;22.00;69.50;;;;;;10427670;28;20093;-69
2022/09/01 13:23:25;;;;;;;2.05;0.85;;;22.20;69.40;;;;;;10447237;28;20091;-67
2022/09/01 13:28:26;;;;;;;6.10;1.10;;;22.50;68.80;;;;;;10443066;28;20036;-68
2022/09/01 13:33:27;;;;;;;2.50;0.77;;;22.50;68.10;;;;;;10440944;28;20050;-65
2022/09/01 13:38:28;;;;;;;1.60;1.00;;;22.20;68.20;;;;;;10433084;28;20052;-68
2022/09/01 13:43:30;;;;;;;1.58;0.75;;;22.30;68.30;;;;;;10443759;28;20036;-69
2022/09/01 13:48:34;;;;;;;3.50;0.90;;;22.20;68.00;;;;;;10441033;28;20751;-70
2022/09/01 13:53:35;;;;;;;4.07;0.90;;;22.20;68.50;;;;;;10434660;28;20747;-69
2022/09/01 13:58:35;;;;;;;1.13;0.65;;;22.20;68.20;;;;;;10443239;28;20052;-70
2022/09/01 14:03:36;;;;;;;2.17;0.80;;;22.70;66.60;;;;;;10423347;28;20032;-67
2022/09/01 14:08:37;;;;;;;2.85;0.90;;;23.20;65.60;;;;;;10427561;28;20203;-69
2022/09/01 14:13:38;;;;;;;5.82;1.00;;;23.70;64.90;;;;;;10427697;28;20040;-70
2022/09/01 14:18:41;;;;;;;1.92;0.80;;;24.00;64.80;;;;;;10433310;28;20052;-67
2022/09/01 14:23:45;;;;;;;3.05;0.70;;;24.00;65.20;;;;;;10455001;28;20031;-65
2022/09/01 14:28:47;;;;;;;0.65;0.65;;;23.90;65.70;;;;;;10451089;28;20508;-68
2022/09/01 14:33:48;;;;;;;1.55;0.70;;;23.90;66.20;;;;;;10452295;28;20851;-65
2022/09/01 14:38:50;;;;;;;1.30;0.80;;;23.90;66.60;;;;;;10448772;28;20044;-65
2022/09/01 14:43:51;;;;;;;1.00;0.70;;;24.00;67.60;;;;;;10444819;28;20059;-68
2022/09/01 14:48:52;;;;;;;2.55;0.80;;;24.00;67.20;;;;;;10446841;28;20154;-67
2022/09/01 14:53:54;;;;;;;1.75;0.70;;;24.00;67.50;;;;;;10444599;28;20039;-65
2022/09/01 14:58:59;;;;;;;1.17;0.82;;;24.10;67.50;;;;;;10455027;28;20040;-65
2022/09/01 15:04:00;;;;;;;2.03;0.68;;;24.10;67.60;;;;;;10451752;28;20073;-73
2022/09/01 15:09:02;;;;;;;0.98;0.70;;;24.20;67.70;;;;;;10448760;28;20064;-65
2022/09/01 15:14:03;;;;;;;1.70;0.80;;;24.30;67.80;;;;;;10453137;28;20028;-65
2022/09/01 15:19:08;;;;;;;1.52;0.70;;;24.40;67.90;;;;;;10435178;28;20048;-65
2022/09/01 15:24:09;;;;;;;1.92;0.75;;;24.50;68.00;;;;;;10458150;28;20043;-65
2022/09/01 15:29:12;;;;;;;0.70;0.70;;;24.50;67.90;;;;;;10454183;28;20044;-65
2022/09/01 15:34:12;;;;;;;0.43;0.43;;;24.60;68.00;;;;;;10446309;28;21048;-66
2022/09/01 15:39:13;;;;;;;0.82;0.60;;;24.70;68.10;;;;;;10457993;28;20205;-66
2022/09/01 15:44:14;;;;;;;1.08;0.70;;;24.80;68.30;;;;;;10460677;28;20020;-65
2022/09/01 15:49:16;;;;;;;1.15;0.80;;;24.80;68.30;;;;;;10448014;28;20063;-66
2022/09/01 15:54:19;;;;;;;1.95;0.80;;;24.80;68.50;;;;;;10449750;28;20163;-68
2022/09/01 15:59:20;;;;;;;0.90;0.80;;;24.70;68.80;;;;;;10459707;28;20450;-65
2022/09/01 16:04:22;;;;;;;0.90;0.63;;;24.60;69.10;;;;;;10449631;28;20032;-65
2022/09/01 16:09:25;;;;;;;0.65;0.65;;;24.50;69.50;;;;;;10452561;28;20139;-65
2022/09/01 16:14:27;;;;;;;1.00;0.70;;;24.40;69.80;;;;;;10458896;28;20031;-65
2022/09/01 16:19:51;;;;;;;0.75;0.70;;;24.30;70.20;;;;;;10451175;28;20083;-65
2022/09/01 16:24:56;;;;;;;0.73;0.73;;;24.20;70.50;;;;;;10441504;28;20100;-66
2022/09/01 16:30:09;;;;;;;0.82;0.63;;;24.20;70.70;;;;;;10437569;28;20032;-67
2022/09/01 16:35:11;;;;;;;0.50;0.50;;;24.10;71.00;;;;;;10442841;28;20028;-66
2022/09/01 16:40:17;;;;;;;2.08;0.50;;;24.10;71.10;;;;;;10445259;28;20043;-66
2022/09/01 16:45:21;;;;;;;1.70;0.55;;;24.00;70.90;;;;;;10432064;28;20882;-66
2022/09/01 16:50:38;;;;;;;0.68;0.68;;;23.90;71.10;;;;;;10438487;22;20048;-65
2022/09/01 16:56:03;;;;;;;0.60;0.60;;;23.80;71.30;;;;;;10438191;28;20526;-66
2022/09/01 17:01:30;;;;;;;0.68;0.63;;;23.80;71.50;;;;;;10437627;28;20789;-65
2022/09/01 17:06:53;;;;;;;1.15;0.80;;;23.80;71.60;;;;;;10415954;28;20044;-66
2022/09/01 17:12:10;;;;;;;2.17;0.60;;;23.70;71.80;;;;;;10415772;28;20032;-66
2022/09/01 17:17:18;;;;;;;0.70;0.70;;;23.60;71.90;;;;;;10430208;28;20046;-64
2022/09/01 17:22:20;;;;;;;0.60;0.60;;;23.60;72.20;;;;;;10433770;28;20141;-64
2022/09/01 17:27:28;;;;;;;0.65;0.60;;;23.50;72.30;;;;;;10435886;28;20028;-65
2022/09/01 17:32:28;;;;;;;;;;;23.50;72.40;;;;;;10434990;28;20812;-65
2022/09/01 17:37:59;;;;;;;1.08;0.70;;;23.40;72.30;;;;;;10439183;28;19928;-65
2022/09/01 17:43:15;;;;;;;0.60;0.60;;;23.40;72.60;;;;;;10440115;28;20527;-64
2022/09/01 17:48:23;;;;;;;0.60;0.60;;;23.30;73.00;;;;;;10437854;28;20048;-64
2022/09/01 17:53:24;;;;;;;;;;;23.20;73.10;;;;;;10410130;22;20649;-64
2022/09/01 17:58:55;;;;;;;0.60;0.60;;;23.20;73.40;;;;;;10394128;28;19997;-65
2022/09/01 18:04:12;;;;;;;1.25;1.00;;;23.10;73.40;;;;;;10392564;28;20033;-65
2022/09/01 18:09:15;;;;;;;;;;;23.00;73.40;;;;;;10415268;28;20032;-65
2022/09/01 18:14:41;;;;;;;0.93;0.60;;;23.00;73.40;;;;;;10405936;28;20210;-68
2022/09/01 18:19:46;;;;;;;0.70;0.70;;;22.90;73.30;;;;;;10396546;28;20224;-64
2022/09/01 18:24:50;;;;;;;0.80;0.70;;;22.90;73.50;;;;;;10402599;28;20475;-68
2022/09/01 18:29:51;;;;;;;0.73;0.65;;;22.80;73.40;;;;;;10406027;28;20036;-66
2022/09/01 18:34:55;;;;;;;1.25;0.65;;;22.80;73.50;;;;;;10405263;28;20936;-64
2022/09/01 18:40:24;;;;;;;1.17;0.80;;;22.80;73.50;;;;;;10393866;28;20044;-64
2022/09/01 18:45:49;;;;;;;0.85;0.80;;;22.70;73.40;;;;;;10393677;28;20020;-65
2022/09/01 18:51:34;;;;;;;1.50;0.70;;;22.70;73.40;;;;;;10406479;22;20045;-64
2022/09/01 18:56:53;;;;;;;0.85;0.70;;;22.60;73.40;;;;;;10396221;28;20033;-67
2022/09/01 19:02:14;;;;;;;1.13;0.80;;;22.60;73.40;;;;;;10420809;28;20037;-64
2022/09/01 19:07:40;;;;;;;0.60;0.60;;;22.50;73.40;;;;;;10424032;28;20017;-64
2022/09/01 19:12:54;;;;;;;1.35;0.77;;;22.50;73.40;;;;;;10419161;28;20048;-64
2022/09/01 19:18:16;;;;;;;0.90;0.70;;;22.40;74.00;;;;;;10424156;28;20039;-65
2022/09/01 19:23:45;;;;;;;0.82;0.60;;;22.40;73.50;;;;;;10427603;28;20048;-64
2022/09/01 19:29:06;;;;;;;1.67;0.77;;;22.30;73.30;;;;;;10411648;28;20048;-64
2022/09/01 19:34:44;;;;;;;1.38;0.70;;;22.30;73.30;;;;;;10425150;28;20020;-64
2022/09/01 19:39:49;;;;;;;0.80;0.80;;;22.20;73.10;;;;;;10419425;28;20033;-65
2022/09/01 19:45:25;;;;;;;0.95;0.73;;;22.10;73.30;;;;;;10426301;28;20044;-65
2022/09/01 19:50:30;;;;;;;1.17;0.90;;;22.10;73.10;;;;;;10416439;28;20032;-70
2022/09/01 19:56:04;;;;;;;1.45;0.90;;;22.10;73.20;;;;;;10436396;28;20497;-65
2022/09/01 20:01:10;;;;;;;1.02;0.90;;;22.00;73.00;;;;;;10420569;28;20029;-64
2022/09/01 20:06:41;;;;;;;1.48;0.90;;;22.00;73.10;;;;;;10425791;28;21089;-63
2022/09/01 20:11:56;;;;;;;0.98;0.90;;;21.90;72.70;;;;;;10428635;28;20036;-64
2022/09/01 20:17:01;;;;;;;1.65;1.17;;;21.90;73.00;;;;;;10432303;28;20780;-64
2022/09/01 20:22:31;;;;;;;0.75;0.75;;;21.90;73.00;;;;;;10425133;28;20029;-64
2022/09/01 20:27:42;;;;;;;0.95;0.80;;;21.80;72.70;;;;;;10422065;28;20075;-64
2022/09/01 20:33:02;;;;;;;4.25;1.00;;;21.80;72.80;;;;;;10435632;28;20593;-64
2022/09/01 20:43:56;;;;;;;1.45;0.90;;;21.70;72.40;;;;;;10429810;28;20155;-63
2022/09/01 20:48:57;;;;;;;1.45;0.88;;;21.60;72.70;;;;;;10421594;28;20036;-64
2022/09/01 20:54:10;;;;;;;1.63;1.13;;;21.60;72.60;;;;;;10424859;28;20041;-64
2022/09/01 20:59:29;;;;;;;1.65;1.00;;;21.60;72.30;;;;;;10431037;28;20037;-63
2022/09/01 21:04:37;;;;;;;0.93;0.90;;;21.50;72.30;;;;;;10435987;28;20021;-64
2022/09/01 21:09:58;;;;;;;1.05;0.88;;;21.50;72.30;;;;;;10432056;28;20034;-64
2022/09/01 21:15:29;;;;;;;0.80;0.80;;;21.40;72.20;;;;;;10436392;28;20041;-64
2022/09/01 21:20:43;;;;;;;0.98;0.90;;;21.40;72.10;;;;;;10440732;28;20037;-64
2022/09/01 21:25:44;;;;;;;1.33;1.00;;;21.50;72.30;;;;;;10441297;28;20055;-64
2022/09/01 21:30:49;;;;;;;1.42;1.00;;;21.30;72.30;;;;;;10432477;28;20033;-63
2022/09/01 21:35:50;;;;;;;1.65;1.00;;;21.30;72.20;;;;;;10423800;28;20017;-64
2022/09/01 21:40:52;;;;;;;1.13;0.90;;;21.30;72.20;;;;;;10434544;28;20663;-64
2022/09/01 21:45:52;;;;;;;1.05;0.90;;;21.20;72.10;;;;;;10435716;28;20521;-64
2022/09/01 21:50:53;;;;;;;1.77;0.90;;;21.20;72.20;;;;;;10432257;28;20044;-64
2022/09/01 21:55:54;;;;;;;3.63;0.98;;;21.10;72.00;;;;;;10434084;28;20044;-64
2022/09/01 22:00:57;;;;;;;1.35;1.20;;;21.10;72.00;;;;;;10424819;28;20068;-63
2022/09/01 22:05:58;;;;;;;1.90;1.20;;;21.10;71.90;;;;;;10421505;28;20068;-65
2022/09/01 22:10:59;;;;;;;1.70;1.13;;;21.00;71.80;;;;;;10432838;28;20598;-63
2022/09/01 22:16:01;;;;;;;2.22;1.10;;;21.00;71.70;;;;;;10429203;28;20024;-65
2022/09/01 22:21:04;;;;;;;1.23;1.10;;;21.00;71.70;;;;;;10435003;28;20029;-63
2022/09/01 22:26:05;;;;;;;1.58;1.17;;;21.00;71.60;;;;;;10429706;28;20370;-64
2022/09/01 22:31:10;;;;;;;2.17;1.20;;;20.90;71.60;;;;;;10421872;28;20034;-64
2022/09/01 22:36:22;;;;;;;1.33;1.10;;;20.80;71.50;;;;;;10427189;28;20504;-64
2022/09/01 22:41:25;;;;;;;1.13;1.00;;;20.80;71.30;;;;;;10433004;28;20031;-64
2022/09/01 22:46:27;;;;;;;1.83;1.10;;;20.80;71.40;;;;;;10458100;28;20020;-65
2022/09/01 22:51:28;;;;;;;1.42;1.10;;;20.80;71.40;;;;;;10442141;28;20037;-64
2022/09/01 22:56:31;;;;;;;1.55;1.15;;;20.70;71.30;;;;;;10428974;28;20139;-64
2022/09/01 23:01:35;;;;;;;2.97;1.20;;;20.70;71.30;;;;;;10426361;28;20431;-63
2022/09/01 23:06:39;;;;;;;2.95;1.30;;;20.60;71.30;;;;;;10418307;28;20017;-64
2022/09/01 23:11:41;;;;;;;1.27;1.17;;;20.60;71.20;;;;;;10439853;28;20481;-64
2022/09/01 23:16:42;;;;;;;1.17;1.08;;;20.60;71.20;;;;;;10451007;28;20013;-63
2022/09/01 23:21:42;;;;;;;1.40;1.20;;;20.60;71.20;;;;;;10427290;28;20037;-63
2022/09/01 23:26:43;;;;;;;1.40;0.93;;;20.50;71.10;;;;;;10428900;28;20029;-64
2022/09/01 23:31:44;;;;;;;1.45;0.95;;;20.50;71.10;;;;;;10437698;28;20044;-63
2022/09/01 23:36:45;;;;;;;2.10;1.10;;;20.50;71.10;;;;;;10434331;28;20029;-63
2022/09/01 23:41:46;;;;;;;2.17;0.90;;;20.40;71.00;;;;;;10440955;28;20032;-64
2022/09/01 23:46:47;;;;;;;0.80;0.80;;;20.40;71.00;;;;;;10448097;28;20029;-66
2022/09/01 23:51:48;;;;;;;1.17;0.98;;;20.40;71.60;;;;;;10436466;28;20091;-63
2022/09/01 23:56:48;;;;;;;1.80;1.30;;;20.40;71.00;;;;;;10434352;28;20052;-65
